sensor_id;sensor_type;location;lat;lon;timestamp;temperature;humidity
77523;SHT31;66637;-29.628;-49.938;2023-03-11T00:01:57;26.83;79.14
77523;SHT31;66637;-29.628;-49.938;2023-03-11T00:04:29;26.77;78.92
77523;SHT31;66637;-29.628;-49.938;2023-03-11T00:06:59;26.74;79.20
77523;SHT31;66637;-29.628;-49.938;2023-03-11T00:09:30;26.76;79.46
77523;SHT31;66637;-29.628;-49.938;2023-03-11T00:12:04;26.74;79.27
77523;SHT31;66637;-29.628;-49.938;2023-03-11T00:14:34;26.77;79.23
77523;SHT31;66637;-29.628;-49.938;2023-03-11T00:17:04;26.76;79.49
77523;SHT31;66637;-29.628;-49.938;2023-03-11T00:27:54;26.76;78.87
77523;SHT31;66637;-29.628;-49.938;2023-03-11T00:30:25;26.73;78.76
77523;SHT31;66637;-29.628;-49.938;2023-03-11T00:32:57;26.74;78.82
77523;SHT31;66637;-29.628;-49.938;2023-03-11T00:35:31;26.70;79.60
77523;SHT31;66637;-29.628;-49.938;2023-03-11T00:38:05;26.71;79.66
77523;SHT31;66637;-29.628;-49.938;2023-03-11T00:40:36;26.71;79.32
77523;SHT31;66637;-29.628;-49.938;2023-03-11T00:43:09;26.68;79.93
77523;SHT31;66637;-29.628;-49.938;2023-03-11T00:45:41;26.76;79.70
77523;SHT31;66637;-29.628;-49.938;2023-03-11T00:48:12;26.77;79.01
77523;SHT31;66637;-29.628;-49.938;2023-03-11T00:50:44;26.77;79.17
77523;SHT31;66637;-29.628;-49.938;2023-03-11T00:53:15;26.76;79.23
77523;SHT31;66637;-29.628;-49.938;2023-03-11T00:55:46;26.73;79.46
77523;SHT31;66637;-29.628;-49.938;2023-03-11T00:58:18;26.76;79.54
77523;SHT31;66637;-29.628;-49.938;2023-03-11T01:00:54;26.71;79.52
77523;SHT31;66637;-29.628;-49.938;2023-03-11T01:03:24;26.71;79.93
77523;SHT31;66637;-29.628;-49.938;2023-03-11T01:05:54;26.71;79.57
77523;SHT31;66637;-29.628;-49.938;2023-03-11T01:08:25;26.70;79.49
77523;SHT31;66637;-29.628;-49.938;2023-03-11T01:10:56;26.67;79.50
77523;SHT31;66637;-29.628;-49.938;2023-03-11T01:13:28;26.71;79.33
77523;SHT31;66637;-29.628;-49.938;2023-03-11T01:15:59;26.67;80.12
77523;SHT31;66637;-29.628;-49.938;2023-03-11T01:18:31;26.65;80.01
77523;SHT31;66637;-29.628;-49.938;2023-03-11T01:21:02;26.65;79.56
77523;SHT31;66637;-29.628;-49.938;2023-03-11T01:23:33;26.70;79.71
77523;SHT31;66637;-29.628;-49.938;2023-03-11T01:26:04;26.73;79.09
77523;SHT31;66637;-29.628;-49.938;2023-03-11T01:28:35;26.74;79.43
77523;SHT31;66637;-29.628;-49.938;2023-03-11T01:31:08;26.71;79.60
77523;SHT31;66637;-29.628;-49.938;2023-03-11T01:33:39;26.70;79.57
77523;SHT31;66637;-29.628;-49.938;2023-03-11T01:36:11;26.68;79.40
77523;SHT31;66637;-29.628;-49.938;2023-03-11T01:38:42;26.70;79.06
77523;SHT31;66637;-29.628;-49.938;2023-03-11T01:41:13;26.68;78.83
77523;SHT31;66637;-29.628;-49.938;2023-03-11T01:46:23;26.67;79.38
77523;SHT31;66637;-29.628;-49.938;2023-03-11T01:48:57;26.68;79.61
77523;SHT31;66637;-29.628;-49.938;2023-03-11T01:54:12;26.67;79.35
77523;SHT31;66637;-29.628;-49.938;2023-03-11T01:56:44;26.67;79.41
77523;SHT31;66637;-29.628;-49.938;2023-03-11T01:59:20;26.64;79.21
77523;SHT31;66637;-29.628;-49.938;2023-03-11T02:02:01;26.63;79.64
77523;SHT31;66637;-29.628;-49.938;2023-03-11T02:04:36;26.60;79.15
77523;SHT31;66637;-29.628;-49.938;2023-03-11T02:07:08;26.61;79.32
77523;SHT31;66637;-29.628;-49.938;2023-03-11T02:09:40;26.63;79.46
77523;SHT31;66637;-29.628;-49.938;2023-03-11T02:12:12;26.64;79.69
77523;SHT31;66637;-29.628;-49.938;2023-03-11T02:14:48;26.65;79.96
77523;SHT31;66637;-29.628;-49.938;2023-03-11T02:17:19;26.76;79.55
77523;SHT31;66637;-29.628;-49.938;2023-03-11T02:22:42;26.67;79.76
77523;SHT31;66637;-29.628;-49.938;2023-03-11T02:27:53;26.61;79.63
77523;SHT31;66637;-29.628;-49.938;2023-03-11T02:30:27;26.57;79.69
77523;SHT31;66637;-29.628;-49.938;2023-03-11T02:32:58;26.56;79.58
77523;SHT31;66637;-29.628;-49.938;2023-03-11T02:35:30;26.53;79.51
77523;SHT31;66637;-29.628;-49.938;2023-03-11T02:38:01;26.53;79.88
77523;SHT31;66637;-29.628;-49.938;2023-03-11T02:41:10;26.54;79.72
77523;SHT31;66637;-29.628;-49.938;2023-03-11T02:43:44;26.58;79.79
77523;SHT31;66637;-29.628;-49.938;2023-03-11T02:46:17;26.58;79.65
77523;SHT31;66637;-29.628;-49.938;2023-03-11T02:48:49;26.54;79.80
77523;SHT31;66637;-29.628;-49.938;2023-03-11T02:51:22;26.50;79.93
77523;SHT31;66637;-29.628;-49.938;2023-03-11T02:53:58;26.48;80.03
77523;SHT31;66637;-29.628;-49.938;2023-03-11T02:56:30;26.46;79.95
77523;SHT31;66637;-29.628;-49.938;2023-03-11T02:59:02;26.48;79.93
77523;SHT31;66637;-29.628;-49.938;2023-03-11T03:01:34;26.47;79.89
77523;SHT31;66637;-29.628;-49.938;2023-03-11T03:04:06;26.50;79.83
77523;SHT31;66637;-29.628;-49.938;2023-03-11T03:06:36;26.48;79.88
77523;SHT31;66637;-29.628;-49.938;2023-03-11T03:09:09;26.48;80.03
77523;SHT31;66637;-29.628;-49.938;2023-03-11T03:12:09;26.54;80.18
77523;SHT31;66637;-29.628;-49.938;2023-03-11T03:14:56;26.43;80.38
77523;SHT31;66637;-29.628;-49.938;2023-03-11T03:17:29;26.37;80.47
77523;SHT31;66637;-29.628;-49.938;2023-03-11T03:20:24;26.37;80.55
77523;SHT31;66637;-29.628;-49.938;2023-03-11T03:23:25;26.33;80.63
77523;SHT31;66637;-29.628;-49.938;2023-03-11T03:26:26;26.32;80.58
77523;SHT31;66637;-29.628;-49.938;2023-03-11T03:28:58;26.27;80.67
77523;SHT31;66637;-29.628;-49.938;2023-03-11T03:31:38;26.43;80.22
77523;SHT31;66637;-29.628;-49.938;2023-03-11T03:34:14;26.30;80.39
77523;SHT31;66637;-29.628;-49.938;2023-03-11T03:36:48;26.27;80.60
77523;SHT31;66637;-29.628;-49.938;2023-03-11T03:39:20;26.22;80.78
77523;SHT31;66637;-29.628;-49.938;2023-03-11T03:41:53;26.22;80.81
77523;SHT31;66637;-29.628;-49.938;2023-03-11T03:44:28;26.19;80.87
77523;SHT31;66637;-29.628;-49.938;2023-03-11T03:47:08;26.13;81.01
77523;SHT31;66637;-29.628;-49.938;2023-03-11T03:49:39;26.05;81.01
77523;SHT31;66637;-29.628;-49.938;2023-03-11T03:55:18;25.93;81.29
77523;SHT31;66637;-29.628;-49.938;2023-03-11T03:57:52;25.96;81.27
77523;SHT31;66637;-29.628;-49.938;2023-03-11T04:00:34;25.93;81.32
77523;SHT31;66637;-29.628;-49.938;2023-03-11T04:03:49;25.95;81.34
77523;SHT31;66637;-29.628;-49.938;2023-03-11T04:07:06;25.93;81.03
77523;SHT31;66637;-29.628;-49.938;2023-03-11T04:10:12;25.90;80.91
77523;SHT31;66637;-29.628;-49.938;2023-03-11T04:13:03;25.90;80.85
77523;SHT31;66637;-29.628;-49.938;2023-03-11T04:16:27;25.89;80.67
77523;SHT31;66637;-29.628;-49.938;2023-03-11T04:19:14;25.88;80.41
77523;SHT31;66637;-29.628;-49.938;2023-03-11T04:21:51;25.86;80.40
77523;SHT31;66637;-29.628;-49.938;2023-03-11T04:24:24;25.79;80.49
77523;SHT31;66637;-29.628;-49.938;2023-03-11T04:27:22;25.83;80.59
77523;SHT31;66637;-29.628;-49.938;2023-03-11T04:30:25;25.82;80.69
77523;SHT31;66637;-29.628;-49.938;2023-03-11T04:33:13;25.78;80.62
77523;SHT31;66637;-29.628;-49.938;2023-03-11T04:35:56;25.76;80.79
77523;SHT31;66637;-29.628;-49.938;2023-03-11T04:38:54;25.72;80.86
77523;SHT31;66637;-29.628;-49.938;2023-03-11T04:41:43;25.72;80.85
77523;SHT31;66637;-29.628;-49.938;2023-03-11T04:44:24;25.69;80.86
77523;SHT31;66637;-29.628;-49.938;2023-03-11T04:46:57;25.68;80.64
77523;SHT31;66637;-29.628;-49.938;2023-03-11T04:49:31;25.65;80.87
77523;SHT31;66637;-29.628;-49.938;2023-03-11T04:52:14;25.65;80.77
77523;SHT31;66637;-29.628;-49.938;2023-03-11T04:54:52;25.65;80.83
77523;SHT31;66637;-29.628;-49.938;2023-03-11T04:57:26;25.59;80.96
77523;SHT31;66637;-29.628;-49.938;2023-03-11T05:00:04;25.57;80.82
77523;SHT31;66637;-29.628;-49.938;2023-03-11T05:02:51;25.46;80.72
77523;SHT31;66637;-29.628;-49.938;2023-03-11T05:05:24;25.46;81.05
77523;SHT31;66637;-29.628;-49.938;2023-03-11T05:08:00;25.46;81.19
77523;SHT31;66637;-29.628;-49.938;2023-03-11T05:10:36;25.46;80.88
77523;SHT31;66637;-29.628;-49.938;2023-03-11T05:13:22;25.46;80.99
77523;SHT31;66637;-29.628;-49.938;2023-03-11T05:15:55;25.43;80.90
77523;SHT31;66637;-29.628;-49.938;2023-03-11T05:18:27;25.38;80.89
77523;SHT31;66637;-29.628;-49.938;2023-03-11T05:21:02;25.34;81.18
77523;SHT31;66637;-29.628;-49.938;2023-03-11T05:23:37;25.31;81.23
77523;SHT31;66637;-29.628;-49.938;2023-03-11T05:26:10;25.32;81.23
77523;SHT31;66637;-29.628;-49.938;2023-03-11T05:28:45;25.28;81.20
77523;SHT31;66637;-29.628;-49.938;2023-03-11T05:31:24;25.27;81.39
77523;SHT31;66637;-29.628;-49.938;2023-03-11T05:33:56;25.28;81.21
77523;SHT31;66637;-29.628;-49.938;2023-03-11T05:36:28;25.27;81.12
77523;SHT31;66637;-29.628;-49.938;2023-03-11T05:39:02;25.25;81.05
77523;SHT31;66637;-29.628;-49.938;2023-03-11T05:41:35;25.20;81.08
77523;SHT31;66637;-29.628;-49.938;2023-03-11T05:44:08;25.15;81.31
77523;SHT31;66637;-29.628;-49.938;2023-03-11T05:46:46;25.12;81.15
77523;SHT31;66637;-29.628;-49.938;2023-03-11T05:49:20;25.17;81.22
77523;SHT31;66637;-29.628;-49.938;2023-03-11T05:51:54;25.14;81.11
77523;SHT31;66637;-29.628;-49.938;2023-03-11T05:54:33;25.14;81.11
77523;SHT31;66637;-29.628;-49.938;2023-03-11T05:57:04;25.07;81.11
77523;SHT31;66637;-29.628;-49.938;2023-03-11T05:59:40;25.03;81.23
77523;SHT31;66637;-29.628;-49.938;2023-03-11T06:02:15;24.95;81.22
77523;SHT31;66637;-29.628;-49.938;2023-03-11T06:04:48;24.97;81.43
77523;SHT31;66637;-29.628;-49.938;2023-03-11T06:07:48;24.95;81.42
77523;SHT31;66637;-29.628;-49.938;2023-03-11T06:10:50;24.97;81.40
77523;SHT31;66637;-29.628;-49.938;2023-03-11T06:13:22;24.94;81.35
77523;SHT31;66637;-29.628;-49.938;2023-03-11T06:15:55;24.92;81.29
77523;SHT31;66637;-29.628;-49.938;2023-03-11T06:18:30;24.95;81.34
77523;SHT31;66637;-29.628;-49.938;2023-03-11T06:21:05;24.95;81.48
77523;SHT31;66637;-29.628;-49.938;2023-03-11T06:23:39;24.94;81.06
77523;SHT31;66637;-29.628;-49.938;2023-03-11T06:26:16;24.94;81.55
77523;SHT31;66637;-29.628;-49.938;2023-03-11T06:28:49;24.90;81.39
77523;SHT31;66637;-29.628;-49.938;2023-03-11T06:31:27;25.01;81.56
77523;SHT31;66637;-29.628;-49.938;2023-03-11T06:34:05;24.95;81.39
77523;SHT31;66637;-29.628;-49.938;2023-03-11T06:36:36;24.92;81.25
77523;SHT31;66637;-29.628;-49.938;2023-03-11T06:39:06;24.90;81.30
77523;SHT31;66637;-29.628;-49.938;2023-03-11T06:41:45;24.86;81.19
77523;SHT31;66637;-29.628;-49.938;2023-03-11T06:44:16;24.81;81.19
77523;SHT31;66637;-29.628;-49.938;2023-03-11T06:46:50;24.76;81.12
77523;SHT31;66637;-29.628;-49.938;2023-03-11T06:49:22;24.79;81.21
77523;SHT31;66637;-29.628;-49.938;2023-03-11T06:51:54;24.76;81.36
77523;SHT31;66637;-29.628;-49.938;2023-03-11T06:54:26;24.70;81.31
77523;SHT31;66637;-29.628;-49.938;2023-03-11T06:57:00;24.67;80.99
77523;SHT31;66637;-29.628;-49.938;2023-03-11T06:59:35;24.73;81.31
77523;SHT31;66637;-29.628;-49.938;2023-03-11T07:02:12;24.80;81.44
77523;SHT31;66637;-29.628;-49.938;2023-03-11T07:04:50;24.81;81.70
77523;SHT31;66637;-29.628;-49.938;2023-03-11T07:07:22;24.83;81.62
77523;SHT31;66637;-29.628;-49.938;2023-03-11T07:09:55;24.80;81.69
77523;SHT31;66637;-29.628;-49.938;2023-03-11T07:12:30;24.77;81.91
77523;SHT31;66637;-29.628;-49.938;2023-03-11T07:15:01;24.70;82.13
77523;SHT31;66637;-29.628;-49.938;2023-03-11T07:17:37;24.71;82.14
77523;SHT31;66637;-29.628;-49.938;2023-03-11T07:20:13;24.66;82.32
77523;SHT31;66637;-29.628;-49.938;2023-03-11T07:22:46;24.74;82.43
77523;SHT31;66637;-29.628;-49.938;2023-03-11T07:25:23;24.67;82.42
77523;SHT31;66637;-29.628;-49.938;2023-03-11T07:27:54;24.70;82.44
77523;SHT31;66637;-29.628;-49.938;2023-03-11T07:30:28;24.69;82.46
77523;SHT31;66637;-29.628;-49.938;2023-03-11T07:32:59;24.64;82.59
77523;SHT31;66637;-29.628;-49.938;2023-03-11T07:35:35;24.64;82.79
77523;SHT31;66637;-29.628;-49.938;2023-03-11T07:38:06;24.63;82.70
77523;SHT31;66637;-29.628;-49.938;2023-03-11T07:40:37;24.61;82.64
77523;SHT31;66637;-29.628;-49.938;2023-03-11T07:43:09;24.66;82.90
77523;SHT31;66637;-29.628;-49.938;2023-03-11T07:45:40;24.63;82.84
77523;SHT31;66637;-29.628;-49.938;2023-03-11T07:48:16;24.69;82.51
77523;SHT31;66637;-29.628;-49.938;2023-03-11T07:50:59;24.67;82.54
77523;SHT31;66637;-29.628;-49.938;2023-03-11T07:53:35;24.66;82.55
77523;SHT31;66637;-29.628;-49.938;2023-03-11T07:56:11;24.64;82.49
77523;SHT31;66637;-29.628;-49.938;2023-03-11T07:58:47;24.60;82.62
77523;SHT31;66637;-29.628;-49.938;2023-03-11T08:01:25;24.57;82.60
77523;SHT31;66637;-29.628;-49.938;2023-03-11T08:04:02;24.57;82.74
77523;SHT31;66637;-29.628;-49.938;2023-03-11T08:06:41;24.56;82.70
77523;SHT31;66637;-29.628;-49.938;2023-03-11T08:09:39;24.60;82.70
77523;SHT31;66637;-29.628;-49.938;2023-03-11T08:12:15;24.55;82.51
77523;SHT31;66637;-29.628;-49.938;2023-03-11T08:14:48;24.61;82.46
77523;SHT31;66637;-29.628;-49.938;2023-03-11T08:17:19;24.55;82.52
77523;SHT31;66637;-29.628;-49.938;2023-03-11T08:19:49;24.46;82.41
77523;SHT31;66637;-29.628;-49.938;2023-03-11T08:22:21;24.47;82.45
77523;SHT31;66637;-29.628;-49.938;2023-03-11T08:24:52;24.46;82.26
77523;SHT31;66637;-29.628;-49.938;2023-03-11T08:27:27;24.41;82.33
77523;SHT31;66637;-29.628;-49.938;2023-03-11T08:30:00;24.40;82.57
77523;SHT31;66637;-29.628;-49.938;2023-03-11T08:32:32;24.40;82.75
77523;SHT31;66637;-29.628;-49.938;2023-03-11T08:35:05;24.43;82.97
77523;SHT31;66637;-29.628;-49.938;2023-03-11T08:37:38;24.40;82.58
77523;SHT31;66637;-29.628;-49.938;2023-03-11T08:40:09;24.30;82.40
77523;SHT31;66637;-29.628;-49.938;2023-03-11T08:42:40;24.33;82.57
77523;SHT31;66637;-29.628;-49.938;2023-03-11T08:45:11;24.30;82.46
77523;SHT31;66637;-29.628;-49.938;2023-03-11T08:47:47;24.30;82.77
77523;SHT31;66637;-29.628;-49.938;2023-03-11T08:50:19;24.30;82.74
77523;SHT31;66637;-29.628;-49.938;2023-03-11T08:52:51;24.32;82.44
77523;SHT31;66637;-29.628;-49.938;2023-03-11T08:55:25;24.28;82.05
77523;SHT31;66637;-29.628;-49.938;2023-03-11T08:57:59;24.23;81.97
77523;SHT31;66637;-29.628;-49.938;2023-03-11T09:00:32;24.18;81.75
77523;SHT31;66637;-29.628;-49.938;2023-03-11T09:03:06;24.10;81.53
77523;SHT31;66637;-29.628;-49.938;2023-03-11T09:05:38;24.05;81.46
77523;SHT31;66637;-29.628;-49.938;2023-03-11T09:08:10;24.02;81.47
77523;SHT31;66637;-29.628;-49.938;2023-03-11T09:10:41;23.96;81.30
77523;SHT31;66637;-29.628;-49.938;2023-03-11T09:13:15;23.96;80.86
77523;SHT31;66637;-29.628;-49.938;2023-03-11T09:15:48;23.94;80.89
77523;SHT31;66637;-29.628;-49.938;2023-03-11T09:18:19;23.88;80.40
77523;SHT31;66637;-29.628;-49.938;2023-03-11T09:20:53;23.89;80.76
77523;SHT31;66637;-29.628;-49.938;2023-03-11T09:23:28;23.89;80.00
77523;SHT31;66637;-29.628;-49.938;2023-03-11T09:26:00;23.88;79.91
77523;SHT31;66637;-29.628;-49.938;2023-03-11T09:28:31;23.85;79.66
77523;SHT31;66637;-29.628;-49.938;2023-03-11T09:31:03;23.90;79.73
77523;SHT31;66637;-29.628;-49.938;2023-03-11T09:33:39;23.92;79.89
77523;SHT31;66637;-29.628;-49.938;2023-03-11T09:36:13;23.90;79.50
77523;SHT31;66637;-29.628;-49.938;2023-03-11T09:38:46;23.89;79.34
77523;SHT31;66637;-29.628;-49.938;2023-03-11T09:41:24;23.90;79.26
77523;SHT31;66637;-29.628;-49.938;2023-03-11T09:44:13;24.05;79.63
77523;SHT31;66637;-29.628;-49.938;2023-03-11T09:47:07;24.09;79.29
77523;SHT31;66637;-29.628;-49.938;2023-03-11T09:52:31;24.19;78.59
77523;SHT31;66637;-29.628;-49.938;2023-03-11T10:00:44;24.43;77.81
77523;SHT31;66637;-29.628;-49.938;2023-03-11T10:03:30;24.56;77.96
77523;SHT31;66637;-29.628;-49.938;2023-03-11T10:06:27;24.56;77.67
77523;SHT31;66637;-29.628;-49.938;2023-03-11T10:20:51;24.94;76.50
77523;SHT31;66637;-29.628;-49.938;2023-03-11T10:26:36;25.14;76.63
77523;SHT31;66637;-29.628;-49.938;2023-03-11T10:32:01;25.30;76.72
77523;SHT31;66637;-29.628;-49.938;2023-03-11T10:34:42;25.34;76.70
77523;SHT31;66637;-29.628;-49.938;2023-03-11T10:37:25;25.49;76.84
77523;SHT31;66637;-29.628;-49.938;2023-03-11T10:40:38;27.14;73.55
77523;SHT31;66637;-29.628;-49.938;2023-03-11T10:43:20;28.78;68.49
77523;SHT31;66637;-29.628;-49.938;2023-03-11T10:45:55;29.33;65.96
77523;SHT31;66637;-29.628;-49.938;2023-03-11T10:48:28;29.53;65.43
77523;SHT31;66637;-29.628;-49.938;2023-03-11T10:51:11;29.78;65.25
77523;SHT31;66637;-29.628;-49.938;2023-03-11T10:53:55;30.03;64.65
77523;SHT31;66637;-29.628;-49.938;2023-03-11T10:56:28;29.98;64.57
77523;SHT31;66637;-29.628;-49.938;2023-03-11T10:59:02;30.24;63.73
77523;SHT31;66637;-29.628;-49.938;2023-03-11T11:01:33;30.08;63.74
77523;SHT31;66637;-29.628;-49.938;2023-03-11T11:04:26;30.20;64.52
77523;SHT31;66637;-29.628;-49.938;2023-03-11T11:06:58;30.35;64.95
77523;SHT31;66637;-29.628;-49.938;2023-03-11T11:10:22;30.39;63.81
77523;SHT31;66637;-29.628;-49.938;2023-03-11T11:15:39;30.64;63.08
77523;SHT31;66637;-29.628;-49.938;2023-03-11T11:18:15;30.52;62.43
77523;SHT31;66637;-29.628;-49.938;2023-03-11T11:21:03;30.64;63.96
77523;SHT31;66637;-29.628;-49.938;2023-03-11T11:23:47;30.78;62.98
77523;SHT31;66637;-29.628;-49.938;2023-03-11T11:26:25;30.74;62.71
77523;SHT31;66637;-29.628;-49.938;2023-03-11T11:29:15;30.79;63.48
77523;SHT31;66637;-29.628;-49.938;2023-03-11T11:31:47;30.92;62.22
77523;SHT31;66637;-29.628;-49.938;2023-03-11T11:34:26;31.13;62.52
77523;SHT31;66637;-29.628;-49.938;2023-03-11T11:37:01;31.02;61.28
77523;SHT31;66637;-29.628;-49.938;2023-03-11T11:39:51;30.76;62.92
77523;SHT31;66637;-29.628;-49.938;2023-03-11T11:42:27;30.74;62.68
77523;SHT31;66637;-29.628;-49.938;2023-03-11T11:45:09;30.85;62.75
77523;SHT31;66637;-29.628;-49.938;2023-03-11T11:47:51;30.55;63.40
77523;SHT31;66637;-29.628;-49.938;2023-03-11T11:50:40;30.69;62.78
77523;SHT31;66637;-29.628;-49.938;2023-03-11T11:53:54;30.83;62.42
77523;SHT31;66637;-29.628;-49.938;2023-03-11T11:56:32;30.42;63.99
77523;SHT31;66637;-29.628;-49.938;2023-03-11T11:59:14;30.59;63.52
77523;SHT31;66637;-29.628;-49.938;2023-03-11T12:26:19;30.86;63.47
77523;SHT31;66637;-29.628;-49.938;2023-03-11T12:29:23;30.71;63.61
77523;SHT31;66637;-29.628;-49.938;2023-03-11T12:31:56;30.72;63.05
77523;SHT31;66637;-29.628;-49.938;2023-03-11T12:34:37;30.85;62.57
77523;SHT31;66637;-29.628;-49.938;2023-03-11T12:37:14;30.79;63.44
77523;SHT31;66637;-29.628;-49.938;2023-03-11T12:39:50;31.09;62.79
77523;SHT31;66637;-29.628;-49.938;2023-03-11T12:42:25;30.89;63.43
77523;SHT31;66637;-29.628;-49.938;2023-03-11T12:45:47;31.34;62.40
77523;SHT31;66637;-29.628;-49.938;2023-03-11T12:48:45;31.26;62.92
77523;SHT31;66637;-29.628;-49.938;2023-03-11T12:51:39;31.51;62.12
77523;SHT31;66637;-29.628;-49.938;2023-03-11T12:54:36;31.63;62.36
77523;SHT31;66637;-29.628;-49.938;2023-03-11T12:57:34;31.64;61.79
77523;SHT31;66637;-29.628;-49.938;2023-03-11T13:01:02;31.70;61.87
77523;SHT31;66637;-29.628;-49.938;2023-03-11T13:04:03;31.66;61.87
77523;SHT31;66637;-29.628;-49.938;2023-03-11T13:09:23;31.37;62.66
77523;SHT31;66637;-29.628;-49.938;2023-03-11T13:11:57;31.51;61.90
77523;SHT31;66637;-29.628;-49.938;2023-03-11T13:14:32;31.60;61.37
77523;SHT31;66637;-29.628;-49.938;2023-03-11T13:17:23;31.88;61.74
77523;SHT31;66637;-29.628;-49.938;2023-03-11T13:34:42;31.69;63.33
77523;SHT31;66637;-29.628;-49.938;2023-03-11T13:40:39;32.34;61.33
77523;SHT31;66637;-29.628;-49.938;2023-03-11T13:43:26;32.58;59.57
77523;SHT31;66637;-29.628;-49.938;2023-03-11T13:46:06;32.58;60.72
77523;SHT31;66637;-29.628;-49.938;2023-03-11T13:49:36;32.46;60.19
77523;SHT31;66637;-29.628;-49.938;2023-03-11T13:52:30;32.28;60.76
77523;SHT31;66637;-29.628;-49.938;2023-03-11T13:58:24;32.74;59.91
77523;SHT31;66637;-29.628;-49.938;2023-03-11T14:01:16;31.88;61.27
77523;SHT31;66637;-29.628;-49.938;2023-03-11T14:03:56;31.57;62.12
77523;SHT31;66637;-29.628;-49.938;2023-03-11T14:06:41;31.15;63.97
77523;SHT31;66637;-29.628;-49.938;2023-03-11T14:13:22;30.59;65.06
77523;SHT31;66637;-29.628;-49.938;2023-03-11T14:20:22;30.58;65.22
77523;SHT31;66637;-29.628;-49.938;2023-03-11T14:23:19;30.16;66.74
77523;SHT31;66637;-29.628;-49.938;2023-03-11T14:26:25;30.42;65.69
77523;SHT31;66637;-29.628;-49.938;2023-03-11T14:29:01;30.38;66.60
77523;SHT31;66637;-29.628;-49.938;2023-03-11T14:31:42;30.25;65.72
77523;SHT31;66637;-29.628;-49.938;2023-03-11T14:34:28;30.24;65.68
77523;SHT31;66637;-29.628;-49.938;2023-03-11T14:37:00;30.16;66.56
77523;SHT31;66637;-29.628;-49.938;2023-03-11T14:39:38;30.21;66.36
77523;SHT31;66637;-29.628;-49.938;2023-03-11T14:50:22;30.34;66.00
77523;SHT31;66637;-29.628;-49.938;2023-03-11T14:55:57;30.69;65.98
77523;SHT31;66637;-29.628;-49.938;2023-03-11T14:59:37;30.52;65.63
77523;SHT31;66637;-29.628;-49.938;2023-03-11T15:01:51;30.47;65.56
77523;SHT31;66637;-29.628;-49.938;2023-03-11T15:04:41;30.41;65.82
77523;SHT31;66637;-29.628;-49.938;2023-03-11T15:07:19;30.69;65.68
77523;SHT31;66637;-29.628;-49.938;2023-03-11T15:09:51;30.62;64.62
77523;SHT31;66637;-29.628;-49.938;2023-03-11T15:12:33;30.83;64.80
77523;SHT31;66637;-29.628;-49.938;2023-03-11T15:15:23;31.08;64.08
77523;SHT31;66637;-29.628;-49.938;2023-03-11T15:18:01;30.86;64.84
77523;SHT31;66637;-29.628;-49.938;2023-03-11T15:20:34;31.33;63.62
77523;SHT31;66637;-29.628;-49.938;2023-03-11T15:23:18;31.78;63.30
77523;SHT31;66637;-29.628;-49.938;2023-03-11T15:25:56;31.95;61.27
77523;SHT31;66637;-29.628;-49.938;2023-03-11T15:28:29;32.14;60.12
77523;SHT31;66637;-29.628;-49.938;2023-03-11T15:33:54;31.85;60.42
77523;SHT31;66637;-29.628;-49.938;2023-03-11T15:36:35;32.07;62.12
77523;SHT31;66637;-29.628;-49.938;2023-03-11T15:41:56;32.00;61.47
77523;SHT31;66637;-29.628;-49.938;2023-03-11T15:44:59;31.73;62.32
77523;SHT31;66637;-29.628;-49.938;2023-03-11T15:47:29;31.83;63.25
77523;SHT31;66637;-29.628;-49.938;2023-03-11T15:50:25;32.20;61.25
77523;SHT31;66637;-29.628;-49.938;2023-03-11T15:53:19;31.87;61.06
77523;SHT31;66637;-29.628;-49.938;2023-03-11T15:55:53;31.94;62.12
77523;SHT31;66637;-29.628;-49.938;2023-03-11T15:58:40;32.08;60.94
77523;SHT31;66637;-29.628;-49.938;2023-03-11T16:01:14;32.28;60.35
77523;SHT31;66637;-29.628;-49.938;2023-03-11T16:03:46;32.38;60.06
77523;SHT31;66637;-29.628;-49.938;2023-03-11T16:06:17;32.15;60.33
77523;SHT31;66637;-29.628;-49.938;2023-03-11T16:08:51;32.23;61.96
77523;SHT31;66637;-29.628;-49.938;2023-03-11T16:11:26;32.18;59.96
77523;SHT31;66637;-29.628;-49.938;2023-03-11T16:14:04;32.17;59.89
77523;SHT31;66637;-29.628;-49.938;2023-03-11T16:16:37;31.87;60.34
77523;SHT31;66637;-29.628;-49.938;2023-03-11T16:19:10;31.83;61.85
77523;SHT31;66637;-29.628;-49.938;2023-03-11T16:21:43;32.04;59.78
77523;SHT31;66637;-29.628;-49.938;2023-03-11T16:24:19;31.90;60.36
77523;SHT31;66637;-29.628;-49.938;2023-03-11T16:26:49;31.98;60.24
77523;SHT31;66637;-29.628;-49.938;2023-03-11T16:29:24;32.07;59.02
77523;SHT31;66637;-29.628;-49.938;2023-03-11T16:31:57;31.84;59.89
77523;SHT31;66637;-29.628;-49.938;2023-03-11T16:34:27;31.71;61.05
77523;SHT31;66637;-29.628;-49.938;2023-03-11T16:36:58;31.97;61.95
77523;SHT31;66637;-29.628;-49.938;2023-03-11T16:39:35;31.85;59.76
77523;SHT31;66637;-29.628;-49.938;2023-03-11T16:42:06;32.28;60.65
77523;SHT31;66637;-29.628;-49.938;2023-03-11T16:44:43;31.98;60.76
77523;SHT31;66637;-29.628;-49.938;2023-03-11T16:47:13;32.03;59.48
77523;SHT31;66637;-29.628;-49.938;2023-03-11T16:49:44;31.76;61.16
77523;SHT31;66637;-29.628;-49.938;2023-03-11T16:52:19;31.98;59.54
77523;SHT31;66637;-29.628;-49.938;2023-03-11T16:54:51;31.78;59.14
77523;SHT31;66637;-29.628;-49.938;2023-03-11T16:57:21;31.77;60.28
77523;SHT31;66637;-29.628;-49.938;2023-03-11T16:59:52;31.81;59.24
77523;SHT31;66637;-29.628;-49.938;2023-03-11T17:02:22;31.90;60.28
77523;SHT31;66637;-29.628;-49.938;2023-03-11T17:04:54;32.14;58.63
77523;SHT31;66637;-29.628;-49.938;2023-03-11T17:07:28;32.00;58.00
77523;SHT31;66637;-29.628;-49.938;2023-03-11T17:10:07;32.18;58.86
77523;SHT31;66637;-29.628;-49.938;2023-03-11T17:12:41;32.23;57.68
77523;SHT31;66637;-29.628;-49.938;2023-03-11T17:15:36;32.15;58.11
77523;SHT31;66637;-29.628;-49.938;2023-03-11T17:18:41;32.00;58.19
77523;SHT31;66637;-29.628;-49.938;2023-03-11T17:21:22;31.85;58.07
77523;SHT31;66637;-29.628;-49.938;2023-03-11T17:24:05;31.88;58.50
77523;SHT31;66637;-29.628;-49.938;2023-03-11T17:26:56;32.01;58.59
77523;SHT31;66637;-29.628;-49.938;2023-03-11T17:29:33;31.97;58.45
77523;SHT31;66637;-29.628;-49.938;2023-03-11T17:32:13;32.05;58.77
77523;SHT31;66637;-29.628;-49.938;2023-03-11T17:34:58;31.84;59.21
77523;SHT31;66637;-29.628;-49.938;2023-03-11T17:37:39;31.90;59.15
77523;SHT31;66637;-29.628;-49.938;2023-03-11T17:40:10;31.88;58.44
77523;SHT31;66637;-29.628;-49.938;2023-03-11T17:42:58;31.66;60.57
77523;SHT31;66637;-29.628;-49.938;2023-03-11T17:45:29;31.53;59.60
77523;SHT31;66637;-29.628;-49.938;2023-03-11T17:48:20;31.83;59.41
77523;SHT31;66637;-29.628;-49.938;2023-03-11T17:50:56;31.56;58.17
77523;SHT31;66637;-29.628;-49.938;2023-03-11T17:53:27;31.42;59.82
77523;SHT31;66637;-29.628;-49.938;2023-03-11T17:56:18;31.13;61.04
77523;SHT31;66637;-29.628;-49.938;2023-03-11T17:59:02;31.04;61.23
77523;SHT31;66637;-29.628;-49.938;2023-03-11T18:01:38;31.06;62.52